createdAt,value
2019-01-26T00:00:59.237Z,60.20
2019-01-26T00:03:31.398Z,59.90
2019-01-26T00:06:03.394Z,60.00
2019-01-26T00:08:35.244Z,60.30
2019-01-26T00:11:07.073Z,60.20
2019-01-26T00:13:39.190Z,60.30
2019-01-26T00:16:11.117Z,60.20
2019-01-26T00:18:43.081Z,61.20
2019-01-26T00:21:14.954Z,60.30
2019-01-26T00:23:46.763Z,60.10
2019-01-26T00:26:18.657Z,60.50
2019-01-26T00:28:50.758Z,60.60
2019-01-26T00:31:22.919Z,60.50
2019-01-26T00:33:54.720Z,60.70
2019-01-26T00:36:26.700Z,60.90
2019-01-26T00:38:58.546Z,61.00
2019-01-26T00:41:30.466Z,60.80
2019-01-26T00:44:02.413Z,61.70
2019-01-26T00:46:34.210Z,60.70
2019-01-26T00:49:06.265Z,60.70
2019-01-26T00:51:38.475Z,60.90
2019-01-26T00:54:10.359Z,61.10
2019-01-26T00:56:42.333Z,61.30
2019-01-26T00:59:14.401Z,61.20
2019-01-26T01:01:46.372Z,61.30
2019-01-26T01:04:18.273Z,61.40
2019-01-26T01:06:50.141Z,61.50
2019-01-26T01:09:25.095Z,61.70
2019-01-26T01:11:56.913Z,61.70
2019-01-26T01:14:31.813Z,61.60
2019-01-26T01:17:03.955Z,61.90
2019-01-26T01:19:35.830Z,61.60
2019-01-26T01:22:07.730Z,61.60
2019-01-26T01:24:39.565Z,61.60
2019-01-26T01:27:11.411Z,61.60
2019-01-26T01:29:43.217Z,61.70
2019-01-26T01:32:15.152Z,61.70
2019-01-26T01:34:47.222Z,61.50
2019-01-26T01:37:19.098Z,61.70
2019-01-26T01:39:50.926Z,61.80
2019-01-26T01:42:22.860Z,61.50
2019-01-26T01:44:54.888Z,61.80
2019-01-26T01:47:26.908Z,61.80
2019-01-26T01:49:59.758Z,62.10
2019-01-26T01:52:31.615Z,62.10
2019-01-26T01:55:03.414Z,62.00
2019-01-26T01:57:36.810Z,62.10
2019-01-26T02:00:17.088Z,62.20
2019-01-26T02:02:48.985Z,62.20
2019-01-26T02:05:20.895Z,62.10
2019-01-26T02:07:52.995Z,62.40
2019-01-26T02:10:26.081Z,62.50
2019-01-26T02:12:57.887Z,62.50
2019-01-26T02:15:29.997Z,62.40
2019-01-26T02:18:01.863Z,62.30
2019-01-26T02:20:33.993Z,62.30
2019-01-26T02:23:05.832Z,62.10
2019-01-26T02:25:37.949Z,62.30
2019-01-26T02:28:09.754Z,62.40
2019-01-26T02:30:41.825Z,62.40
2019-01-26T02:33:13.784Z,62.60
2019-01-26T02:35:45.836Z,62.70
2019-01-26T02:38:17.678Z,62.60
2019-01-26T02:40:49.467Z,62.50
2019-01-26T02:43:21.417Z,62.50
2019-01-26T02:45:53.244Z,62.50
2019-01-26T02:48:25.095Z,62.60
2019-01-26T02:51:08.714Z,62.80
2019-01-26T02:53:40.697Z,63.20
2019-01-26T02:56:12.812Z,63.10
2019-01-26T02:58:44.986Z,63.20
2019-01-26T03:01:16.923Z,63.00
2019-01-26T03:03:48.999Z,63.00
2019-01-26T03:06:20.797Z,63.50
2019-01-26T03:08:52.626Z,63.30
2019-01-26T03:11:24.557Z,63.20
2019-01-26T03:13:56.346Z,63.40
2019-01-26T03:16:28.296Z,63.40
2019-01-26T03:19:00.166Z,63.70
2019-01-26T03:21:31.990Z,63.50
2019-01-26T03:24:03.930Z,63.70
2019-01-26T03:26:35.784Z,63.80
2019-01-26T03:29:07.856Z,63.70
2019-01-26T03:31:39.652Z,63.70
2019-01-26T03:34:11.507Z,63.40
2019-01-26T03:36:43.323Z,63.50
2019-01-26T03:39:15.315Z,63.60
2019-01-26T03:41:47.072Z,63.60
2019-01-26T03:44:18.887Z,63.80
2019-01-26T03:46:50.949Z,63.60
2019-01-26T03:49:34.357Z,63.70
2019-01-26T03:52:06.166Z,63.70
2019-01-26T03:54:38.053Z,63.80
2019-01-26T03:57:09.894Z,63.90
2019-01-26T03:59:41.737Z,64.00
2019-01-26T04:02:13.504Z,63.90
2019-01-26T04:04:45.467Z,63.80
2019-01-26T04:07:17.254Z,64.00
2019-01-26T04:09:49.120Z,63.80
2019-01-26T04:12:21.094Z,63.80
2019-01-26T04:14:53.192Z,63.80
2019-01-26T04:17:25.003Z,64.10
2019-01-26T04:19:56.825Z,63.70
2019-01-26T04:22:28.721Z,64.00
2019-01-26T04:25:00.547Z,63.90
2019-01-26T04:27:32.342Z,64.20
2019-01-26T04:30:05.027Z,64.10
2019-01-26T04:32:36.871Z,64.20
2019-01-26T04:35:09.648Z,64.30
2019-01-26T04:37:41.795Z,64.40
2019-01-26T04:40:16.837Z,64.20
2019-01-26T04:42:48.941Z,64.30
2019-01-26T04:45:23.604Z,64.40
2019-01-26T04:47:55.400Z,64.30
2019-01-26T04:50:27.286Z,64.60
2019-01-26T04:52:59.107Z,64.70
2019-01-26T04:55:30.929Z,64.80
2019-01-26T04:58:02.743Z,64.60
2019-01-26T05:00:34.705Z,64.50
2019-01-26T05:03:06.820Z,64.70
2019-01-26T05:05:38.628Z,64.70
2019-01-26T05:08:10.446Z,64.60
2019-01-26T05:10:42.386Z,64.50
2019-01-26T05:13:14.464Z,64.70
2019-01-26T05:15:46.315Z,64.70
2019-01-26T05:18:18.118Z,64.80
2019-01-26T05:20:50.317Z,64.60
2019-01-26T05:23:22.236Z,64.80
2019-01-26T05:25:54.042Z,64.90
2019-01-26T05:28:25.848Z,65.00
2019-01-26T05:30:57.838Z,65.00
2019-01-26T05:33:29.622Z,65.10
2019-01-26T05:36:01.526Z,65.00
2019-01-26T05:38:33.341Z,65.20
2019-01-26T05:41:05.243Z,66.00
2019-01-26T05:43:37.263Z,65.30
2019-01-26T05:46:10.399Z,65.20
2019-01-26T05:48:42.204Z,65.10
2019-01-26T05:51:14.006Z,64.10
2019-01-26T05:53:45.818Z,65.10
2019-01-26T05:56:17.630Z,65.20
2019-01-26T05:58:49.429Z,65.00
2019-01-26T06:01:21.554Z,65.00
2019-01-26T06:03:53.369Z,65.10
2019-01-26T06:06:25.173Z,65.30
2019-01-26T06:08:57.074Z,65.20
2019-01-26T06:11:29.051Z,65.20
2019-01-26T06:14:01.068Z,65.20
2019-01-26T06:16:32.867Z,65.20
2019-01-26T06:19:04.702Z,65.00
2019-01-26T06:21:36.823Z,65.20
2019-01-26T06:24:08.873Z,65.20
2019-01-26T06:26:42.008Z,65.20
2019-01-26T06:29:13.799Z,65.30
2019-01-26T06:31:45.612Z,65.40
2019-01-26T06:34:17.489Z,65.50
2019-01-26T06:36:49.307Z,65.40
2019-01-26T06:39:21.121Z,65.40
2019-01-26T06:41:52.932Z,65.60
2019-01-26T06:44:24.779Z,65.40
2019-01-26T06:46:56.673Z,65.60
2019-01-26T06:49:28.575Z,65.60
2019-01-26T06:52:00.626Z,65.30
2019-01-26T06:54:32.703Z,65.50
2019-01-26T06:57:04.646Z,65.60
2019-01-26T06:59:36.550Z,65.30
2019-01-26T07:02:08.662Z,65.40
2019-01-26T07:05:05.618Z,65.40
2019-01-26T07:07:37.467Z,65.50
2019-01-26T07:10:10.128Z,65.50
2019-01-26T07:12:42.128Z,65.40
2019-01-26T07:15:15.592Z,65.60
2019-01-26T07:17:47.385Z,65.50
2019-01-26T07:20:19.281Z,65.60
2019-01-26T07:22:51.155Z,65.50
2019-01-26T07:25:22.998Z,65.60
2019-01-26T07:27:55.065Z,65.40
2019-01-26T07:30:27.311Z,65.30
2019-01-26T07:32:59.108Z,65.60
2019-01-26T07:35:31.184Z,65.40
2019-01-26T07:38:03.015Z,66.30
2019-01-26T07:40:35.282Z,65.70
2019-01-26T07:43:10.254Z,65.40
2019-01-26T07:45:52.019Z,65.40
2019-01-26T07:48:34.809Z,65.80
2019-01-26T07:51:12.667Z,65.40
2019-01-26T07:53:49.520Z,65.40
2019-01-26T07:56:24.295Z,65.40
2019-01-26T07:59:08.251Z,65.90
2019-01-26T08:01:45.405Z,65.40
2019-01-26T08:04:18.770Z,65.50
2019-01-26T08:07:07.234Z,65.70
2019-01-26T08:09:38.979Z,65.60
2019-01-26T08:12:15.153Z,65.40
2019-01-26T08:14:50.025Z,65.50
2019-01-26T08:17:25.649Z,65.60
2019-01-26T08:19:57.690Z,65.60
2019-01-26T08:22:32.622Z,66.20
2019-01-26T08:25:07.925Z,65.60
2019-01-26T08:27:43.895Z,65.60
2019-01-26T08:30:26.256Z,65.50
2019-01-26T08:33:01.395Z,65.50
2019-01-26T08:35:33.281Z,65.60
2019-01-26T08:38:06.601Z,65.50
2019-01-26T08:40:40.830Z,65.30
2019-01-26T08:43:26.646Z,65.30
2019-01-26T08:46:01.508Z,65.40
2019-01-26T08:48:35.688Z,65.30
2019-01-26T08:51:12.360Z,65.60
2019-01-26T08:53:44.270Z,65.70
2019-01-26T08:56:16.140Z,65.80
2019-01-26T08:58:50.942Z,65.80
2019-01-26T09:01:23.023Z,66.50
2019-01-26T09:04:11.742Z,66.60
2019-01-26T09:07:08.604Z,65.80
2019-01-26T09:09:40.487Z,65.60
2019-01-26T09:12:17.047Z,65.50
2019-01-26T09:14:56.048Z,65.70
2019-01-26T09:17:29.233Z,65.60
2019-01-26T09:20:01.201Z,65.50
2019-01-26T09:22:33.394Z,65.60
2019-01-26T09:25:09.632Z,65.60
2019-01-26T09:27:46.417Z,65.70
2019-01-26T09:30:20.214Z,65.90
2019-01-26T09:32:52.420Z,65.90
2019-01-26T09:35:24.378Z,65.70
2019-01-26T09:37:56.418Z,65.90
2019-01-26T09:40:30.448Z,66.50
2019-01-26T09:43:02.444Z,66.10
2019-01-26T09:45:37.437Z,66.10
2019-01-26T09:48:09.594Z,66.50
2019-01-26T09:50:41.427Z,66.20
2019-01-26T09:53:13.443Z,66.40
2019-01-26T09:55:45.495Z,66.50
2019-01-26T09:58:19.932Z,66.50
2019-01-26T10:00:52.042Z,66.60
2019-01-26T10:03:25.517Z,66.50
2019-01-26T10:06:00.143Z,66.50
2019-01-26T10:08:33.487Z,66.60
2019-01-26T10:11:07.445Z,66.70
2019-01-26T10:13:39.704Z,66.60
2019-01-26T10:16:30.638Z,66.90
2019-01-26T10:19:04.826Z,66.50
2019-01-26T10:21:36.964Z,66.50
2019-01-26T10:24:08.945Z,66.40
2019-01-26T10:26:41.484Z,66.40
2019-01-26T10:29:17.438Z,66.50
2019-01-26T10:31:49.898Z,66.40
2019-01-26T10:34:21.769Z,66.60
2019-01-26T10:37:01.302Z,66.20
2019-01-26T10:39:33.226Z,66.40
2019-01-26T10:42:39.568Z,66.60
2019-01-26T10:45:11.545Z,66.40
2019-01-26T10:47:46.336Z,66.50
2019-01-26T10:50:19.605Z,66.50
2019-01-26T10:52:53.114Z,66.50
2019-01-26T10:55:26.533Z,65.90
2019-01-26T10:57:58.781Z,66.50
2019-01-26T11:00:36.505Z,66.40
2019-01-26T11:03:12.758Z,66.40
2019-01-26T11:05:44.992Z,66.50
2019-01-26T11:08:17.036Z,66.60
2019-01-26T11:10:49.291Z,66.40
2019-01-26T11:13:21.513Z,66.40
2019-01-26T11:15:53.677Z,66.40
2019-01-26T11:18:25.613Z,66.40
2019-01-26T11:20:59.145Z,66.40
2019-01-26T11:23:31.067Z,66.50
2019-01-26T11:26:04.558Z,66.60
2019-01-26T11:28:38.110Z,66.40
2019-01-26T11:31:11.626Z,66.40
2019-01-26T11:33:44.948Z,66.40
2019-01-26T11:36:17.658Z,66.50
2019-01-26T11:38:49.740Z,66.60
2019-01-26T11:41:21.708Z,66.50
2019-01-26T11:43:53.505Z,66.60
2019-01-26T11:46:31.605Z,66.50
2019-01-26T11:49:03.677Z,66.40
2019-01-26T11:52:07.070Z,65.20
2019-01-26T11:55:02.087Z,65.10
2019-01-26T11:57:36.381Z,65.10
2019-01-26T12:00:38.723Z,65.00
2019-01-26T12:03:28.299Z,64.90
2019-01-26T12:06:10.155Z,64.80
2019-01-26T12:08:42.055Z,64.80
2019-01-26T12:11:14.154Z,64.70
2019-01-26T12:13:46.050Z,64.70
2019-01-26T12:16:17.899Z,64.70
2019-01-26T12:18:50.025Z,64.80
2019-01-26T12:21:22.102Z,64.80
2019-01-26T12:23:54.241Z,64.60
2019-01-26T12:26:26.385Z,64.40
2019-01-26T12:28:58.265Z,64.50
2019-01-26T12:31:30.137Z,64.60
2019-01-26T12:34:02.338Z,64.80
2019-01-26T12:36:34.297Z,64.80
2019-01-26T12:39:10.901Z,64.70
2019-01-26T12:41:42.957Z,64.60
2019-01-26T12:44:14.857Z,64.70
2019-01-26T12:46:46.757Z,64.30
2019-01-26T12:49:18.958Z,64.40
2019-01-26T12:51:50.865Z,64.00
2019-01-26T12:54:22.798Z,64.10
2019-01-26T12:56:54.632Z,63.80
2019-01-26T12:59:26.523Z,64.60
2019-01-26T13:01:58.493Z,63.50
2019-01-26T13:04:30.475Z,63.40
2019-01-26T13:07:02.693Z,63.30
2019-01-26T13:09:34.883Z,63.40
2019-01-26T13:12:06.964Z,63.40
2019-01-26T13:14:38.884Z,63.30
2019-01-26T13:17:12.182Z,63.30
2019-01-26T13:19:44.035Z,63.10
2019-01-26T13:22:15.900Z,63.10
2019-01-26T13:24:47.891Z,63.00
2019-01-26T13:27:20.024Z,63.00
2019-01-26T13:29:51.989Z,63.40
2019-01-26T13:32:24.118Z,63.10
2019-01-26T13:34:56.111Z,63.10
2019-01-26T13:37:28.031Z,63.10
2019-01-26T13:39:59.991Z,63.10
2019-01-26T13:42:31.814Z,63.10
2019-01-26T13:45:03.807Z,63.10
2019-01-26T13:47:37.852Z,63.00
2019-01-26T13:50:10.541Z,63.10
2019-01-26T13:52:42.526Z,63.10
2019-01-26T13:55:17.531Z,63.10
2019-01-26T13:57:49.711Z,63.00
2019-01-26T14:00:25.576Z,63.00
2019-01-26T14:02:57.854Z,63.10
2019-01-26T14:05:29.962Z,63.10
2019-01-26T14:08:02.253Z,63.10
2019-01-26T14:10:34.451Z,63.10
2019-01-26T14:13:06.695Z,63.00
2019-01-26T14:15:38.684Z,63.00
2019-01-26T14:18:10.796Z,62.90
2019-01-26T14:20:43.254Z,62.90
2019-01-26T14:23:15.102Z,63.00
2019-01-26T14:25:47.026Z,62.80
2019-01-26T14:28:19.274Z,62.90
2019-01-26T14:31:01.322Z,62.90
2019-01-26T14:33:33.399Z,63.00
2019-01-26T14:36:05.682Z,62.90
2019-01-26T14:38:37.651Z,63.00
2019-01-26T14:41:09.788Z,63.60
2019-01-26T14:43:41.759Z,63.00
2019-01-26T14:46:13.925Z,63.00
2019-01-26T14:48:46.023Z,63.00
2019-01-26T14:51:18.329Z,63.10
2019-01-26T14:53:50.375Z,63.10
2019-01-26T14:56:22.337Z,63.10
2019-01-26T14:58:56.039Z,62.50
2019-01-26T15:01:28.268Z,63.90
2019-01-26T15:04:00.108Z,63.10
2019-01-26T15:06:32.302Z,63.10
2019-01-26T15:09:06.648Z,63.20
2019-01-26T15:11:38.506Z,63.10
2019-01-26T15:14:12.880Z,63.20
2019-01-26T15:16:48.802Z,63.10
2019-01-26T15:19:24.592Z,63.10
2019-01-26T15:21:59.939Z,63.10
2019-01-26T15:24:31.994Z,63.10
2019-01-26T15:27:04.442Z,63.10
2019-01-26T15:29:36.338Z,63.20
2019-01-26T15:32:08.333Z,63.00
2019-01-26T15:34:40.507Z,63.10
2019-01-26T15:37:12.633Z,63.10
2019-01-26T15:39:44.766Z,62.90
2019-01-26T15:42:16.981Z,63.20
2019-01-26T15:44:49.008Z,63.20
2019-01-26T15:47:21.093Z,63.40
2019-01-26T15:49:53.099Z,63.40
2019-01-26T15:52:24.981Z,63.50
2019-01-26T15:54:56.940Z,63.50
2019-01-26T15:57:28.927Z,63.50
2019-01-26T16:00:00.934Z,63.40
2019-01-26T16:02:32.835Z,63.40
2019-01-26T16:05:05.869Z,63.40
2019-01-26T16:07:38.109Z,63.40
2019-01-26T16:10:11.882Z,63.50
2019-01-26T16:12:43.914Z,63.40
2019-01-26T16:15:19.240Z,63.30
2019-01-26T16:17:51.303Z,63.30
2019-01-26T16:20:24.079Z,63.40
2019-01-26T16:22:56.305Z,63.30
2019-01-26T16:25:28.161Z,63.30
2019-01-26T16:28:00.206Z,63.30
2019-01-26T16:30:33.571Z,63.30
2019-01-26T16:33:05.534Z,63.30
2019-01-26T16:35:37.907Z,63.40
2019-01-26T16:38:10.333Z,62.80
2019-01-26T16:40:42.239Z,64.50
2019-01-26T16:43:14.393Z,64.30
2019-01-26T16:45:46.259Z,64.10
2019-01-26T16:48:18.663Z,63.90
2019-01-26T16:50:50.728Z,63.90
2019-01-26T16:53:23.289Z,63.80
2019-01-26T16:55:55.697Z,63.80
2019-01-26T16:58:27.985Z,65.50
2019-01-26T17:01:01.973Z,65.20
2019-01-26T17:03:34.384Z,64.70
2019-01-26T17:06:06.944Z,65.20
2019-01-26T17:08:38.990Z,64.20
2019-01-26T17:11:10.904Z,64.00
2019-01-26T17:13:42.805Z,64.00
2019-01-26T17:16:14.653Z,63.90
2019-01-26T17:18:46.688Z,63.90
2019-01-26T17:21:18.735Z,63.90
2019-01-26T17:23:50.596Z,64.90
2019-01-26T17:26:22.633Z,65.00
2019-01-26T17:28:54.490Z,65.00
2019-01-26T17:31:26.907Z,65.10
2019-01-26T17:33:59.150Z,65.10
2019-01-26T17:36:31.300Z,65.00
2019-01-26T17:39:04.381Z,65.10
2019-01-26T17:41:36.329Z,65.10
2019-01-26T17:44:08.149Z,64.90
2019-01-26T17:46:40.130Z,65.10
2019-01-26T17:49:12.074Z,65.10
2019-01-26T17:51:44.140Z,66.60
2019-01-26T17:54:16.457Z,66.30
2019-01-26T17:56:48.434Z,66.00
2019-01-26T17:59:20.463Z,65.70
2019-01-26T18:01:52.755Z,65.60
2019-01-26T18:04:24.728Z,65.50
2019-01-26T18:06:56.636Z,65.40
2019-01-26T18:09:28.533Z,65.40
2019-01-26T18:12:00.460Z,65.40
2019-01-26T18:14:32.498Z,65.30
2019-01-26T18:17:04.734Z,65.40
2019-01-26T18:19:36.914Z,65.10
2019-01-26T18:22:09.294Z,65.20
2019-01-26T18:24:41.171Z,65.10
2019-01-26T18:27:13.341Z,65.30
2019-01-26T18:29:45.295Z,64.90
2019-01-26T18:32:17.379Z,65.30
2019-01-26T18:34:49.237Z,65.40
2019-01-26T18:37:21.295Z,65.50
2019-01-26T18:39:53.226Z,65.50
2019-01-26T18:42:25.351Z,65.50
2019-01-26T18:44:57.592Z,65.50
2019-01-26T18:47:29.665Z,65.60
2019-01-26T18:50:01.601Z,65.50
2019-01-26T18:52:33.796Z,65.60
2019-01-26T18:55:06.146Z,65.60
2019-01-26T18:57:38.212Z,66.40
2019-01-26T19:00:18.969Z,65.60
2019-01-26T19:02:55.845Z,65.60
2019-01-26T19:05:29.058Z,65.70
2019-01-26T19:08:01.554Z,65.60
2019-01-26T19:10:33.622Z,65.60
2019-01-26T19:13:06.270Z,65.70
2019-01-26T19:15:39.492Z,65.60
2019-01-26T19:18:11.483Z,65.60
2019-01-26T19:20:44.509Z,65.50
2019-01-26T19:23:16.501Z,65.50
2019-01-26T19:25:48.620Z,65.40
2019-01-26T19:28:20.598Z,65.40
2019-01-26T19:30:52.663Z,65.40
2019-01-26T19:33:24.656Z,65.30
2019-01-26T19:35:56.524Z,65.30
2019-01-26T19:38:28.869Z,65.20
2019-01-26T19:41:00.787Z,65.10
2019-01-26T19:43:32.779Z,65.10
2019-01-26T19:46:04.801Z,65.10
2019-01-26T19:48:43.303Z,65.10
2019-01-26T19:51:15.283Z,65.00
2019-01-26T19:53:48.386Z,64.90
2019-01-26T19:56:21.769Z,64.90
2019-01-26T19:58:56.447Z,64.90
2019-01-26T20:01:31.048Z,64.80
2019-01-26T20:04:07.580Z,64.80
2019-01-26T20:06:48.374Z,64.80
2019-01-26T20:09:21.998Z,64.60
2019-01-26T20:11:56.236Z,64.70
2019-01-26T20:14:29.658Z,64.60
2019-01-26T20:17:01.803Z,64.60
2019-01-26T20:19:38.362Z,64.50
2019-01-26T20:22:10.608Z,64.40
2019-01-26T20:24:42.485Z,64.40
2019-01-26T20:27:14.531Z,64.20
2019-01-26T20:29:46.378Z,64.30
2019-01-26T20:32:18.606Z,64.20
2019-01-26T20:34:50.653Z,64.10
2019-01-26T20:37:24.099Z,64.90
2019-01-26T20:39:56.084Z,64.10
2019-01-26T20:42:27.957Z,64.00
2019-01-26T20:44:59.888Z,64.00
2019-01-26T20:47:32.054Z,63.80
2019-01-26T20:50:04.613Z,63.90
2019-01-26T20:52:36.657Z,63.90
2019-01-26T20:55:11.371Z,63.90
2019-01-26T20:57:43.777Z,63.90
2019-01-26T21:00:26.887Z,63.90
2019-01-26T21:02:59.352Z,63.90
2019-01-26T21:05:31.411Z,63.80
2019-01-26T21:08:03.635Z,63.90
2019-01-26T21:10:37.902Z,63.90
2019-01-26T21:13:16.219Z,63.80
2019-01-26T21:15:43.791Z,63.80
2019-01-26T21:18:15.660Z,63.50
2019-01-26T21:20:48.116Z,63.40
2019-01-26T21:23:20.256Z,63.40
2019-01-26T21:25:52.201Z,63.20
2019-01-26T21:28:24.182Z,63.10
2019-01-26T21:30:56.337Z,63.20
2019-01-26T21:33:28.393Z,63.10
2019-01-26T21:36:00.608Z,63.10
2019-01-26T21:38:32.557Z,63.10
2019-01-26T21:41:04.828Z,63.20
2019-01-26T21:43:36.796Z,63.00
2019-01-26T21:46:09.054Z,63.00
2019-01-26T21:48:40.957Z,63.00
2019-01-26T21:51:13.067Z,63.00
2019-01-26T21:53:44.976Z,63.00
2019-01-26T21:56:16.957Z,62.90
2019-01-26T21:58:48.838Z,62.80
2019-01-26T22:01:21.156Z,63.00
2019-01-26T22:03:53.233Z,62.90
2019-01-26T22:06:25.309Z,62.90
2019-01-26T22:08:57.258Z,63.00
2019-01-26T22:11:29.103Z,63.10
2019-01-26T22:14:01.282Z,63.10
2019-01-26T22:16:33.270Z,63.20
2019-01-26T22:19:05.495Z,63.10
2019-01-26T22:21:37.499Z,63.80
2019-01-26T22:24:09.490Z,63.00
2019-01-26T22:26:41.442Z,63.20
2019-01-26T22:29:13.461Z,63.00
2019-01-26T22:31:45.287Z,63.00
2019-01-26T22:34:17.229Z,62.90
2019-01-26T22:36:49.089Z,62.90
2019-01-26T22:39:21.196Z,63.00
2019-01-26T22:41:53.032Z,63.00
2019-01-26T22:44:24.964Z,62.90
2019-01-26T22:46:56.894Z,62.80
2019-01-26T22:49:28.933Z,62.80
2019-01-26T22:52:00.895Z,62.00
2019-01-26T22:54:34.322Z,62.70
2019-01-26T22:57:06.284Z,62.70
2019-01-26T22:59:38.527Z,62.10
2019-01-26T23:02:10.601Z,62.60
2019-01-26T23:06:04.976Z,62.60
2019-01-26T23:08:37.150Z,62.70
2019-01-26T23:11:52.045Z,62.60
2019-01-26T23:15:11.799Z,62.70
2019-01-26T23:18:43.751Z,62.60
2019-01-26T23:22:11.420Z,62.70
2019-01-26T23:25:43.101Z,62.60
2019-01-26T23:29:13.424Z,62.70
2019-01-26T23:31:45.544Z,62.50
2019-01-26T23:34:17.385Z,62.60
2019-01-26T23:36:49.486Z,62.60
2019-01-26T23:39:21.349Z,62.60
2019-01-26T23:41:53.282Z,62.50
2019-01-26T23:44:25.272Z,62.50
2019-01-26T23:46:57.136Z,62.50
2019-01-26T23:49:29.101Z,62.50
2019-01-26T23:52:00.949Z,62.60
2019-01-26T23:54:32.970Z,62.60
2019-01-26T23:57:05.165Z,62.70
2019-01-26T23:59:37.064Z,62.80
